createdAt,value
2018-04-15T00:00:47.577Z,66.76
2018-04-15T00:03:15.409Z,67.41
2018-04-15T00:05:43.097Z,68.12
2018-04-15T00:08:10.960Z,68.26
2018-04-15T00:10:38.602Z,67.36
2018-04-15T00:13:06.277Z,67.66
2018-04-15T00:15:33.869Z,68.12
2018-04-15T00:18:01.518Z,69.66
2018-04-15T00:20:29.183Z,69.62
2018-04-15T00:22:56.820Z,69.22
2018-04-15T00:25:24.482Z,68.68
2018-04-15T00:27:52.141Z,68.31
2018-04-15T00:30:19.835Z,68.61
2018-04-15T00:32:47.452Z,68.64
2018-04-15T00:35:15.107Z,68.71
2018-04-15T00:37:42.732Z,67.65
2018-04-15T00:40:10.392Z,67.94
2018-04-15T00:42:38.017Z,68.40
2018-04-15T00:45:05.727Z,68.32
2018-04-15T00:47:33.374Z,69.33
2018-04-15T00:50:01.035Z,70.28
2018-04-15T00:52:28.701Z,69.44
2018-04-15T00:54:56.295Z,70.62
2018-04-15T00:57:23.965Z,71.59
2018-04-15T00:59:51.620Z,70.46
2018-04-15T01:02:19.345Z,71.00
2018-04-15T01:04:47.004Z,70.73
2018-04-15T01:07:14.716Z,71.09
2018-04-15T01:09:42.397Z,70.22
2018-04-15T01:12:10.097Z,71.25
2018-04-15T01:14:37.780Z,70.74
2018-04-15T01:17:05.528Z,72.40
2018-04-15T01:19:33.295Z,72.15
2018-04-15T01:22:01.008Z,72.87
2018-04-15T01:24:28.693Z,73.24
2018-04-15T01:26:56.400Z,72.41
2018-04-15T01:29:24.126Z,72.85
2018-04-15T01:31:51.754Z,72.87
2018-04-15T01:34:19.401Z,72.99
2018-04-15T01:36:47.022Z,73.46
2018-04-15T01:39:14.672Z,73.38
2018-04-15T01:41:42.253Z,74.33
2018-04-15T01:44:09.852Z,74.20
2018-04-15T01:46:37.480Z,74.21
2018-04-15T01:49:05.143Z,74.12
2018-04-15T01:51:32.735Z,73.46
2018-04-15T01:54:00.320Z,72.17
2018-04-15T01:56:27.940Z,72.94
2018-04-15T01:58:55.520Z,73.00
2018-04-15T02:01:23.148Z,73.67
2018-04-15T02:03:50.741Z,73.87
2018-04-15T02:06:18.372Z,73.79
2018-04-15T02:08:45.943Z,73.75
2018-04-15T02:11:13.773Z,74.18
2018-04-15T02:13:41.384Z,75.13
2018-04-15T02:16:09.120Z,74.00
2018-04-15T02:18:36.720Z,73.85
2018-04-15T02:21:04.392Z,74.51
2018-04-15T02:23:32.780Z,74.32
2018-04-15T02:26:00.454Z,74.62
2018-04-15T02:28:28.140Z,73.67
2018-04-15T02:30:56.337Z,74.40
2018-04-15T02:33:24.065Z,74.09
2018-04-15T02:35:51.645Z,74.14
2018-04-15T02:38:19.542Z,75.27
2018-04-15T02:40:47.788Z,74.52
2018-04-15T02:43:15.549Z,75.56
2018-04-15T02:45:43.206Z,74.98
2018-04-15T02:48:10.812Z,74.63
2018-04-15T02:50:38.460Z,75.60
2018-04-15T02:53:06.303Z,76.06
2018-04-15T02:55:34.186Z,76.60
2018-04-15T02:58:01.830Z,76.82
2018-04-15T03:00:29.419Z,76.91
2018-04-15T03:02:57.049Z,76.65
2018-04-15T03:05:24.692Z,76.26
2018-04-15T03:07:52.359Z,75.88
2018-04-15T03:10:20.146Z,75.89
2018-04-15T03:12:47.764Z,75.46
2018-04-15T03:15:15.385Z,76.15
2018-04-15T03:17:43.046Z,76.09
2018-04-15T03:20:10.712Z,76.67
2018-04-15T03:22:38.351Z,75.86
2018-04-15T03:25:06.002Z,76.56
2018-04-15T03:27:33.602Z,76.65
2018-04-15T03:30:01.286Z,78.12
2018-04-15T03:32:28.898Z,76.79
2018-04-15T03:34:56.534Z,76.75
2018-04-15T03:37:24.139Z,76.27
2018-04-15T03:39:52.090Z,76.66
2018-04-15T03:42:19.734Z,77.07
2018-04-15T03:44:47.311Z,77.72
2018-04-15T03:47:14.995Z,78.09
2018-04-15T03:49:42.592Z,77.61
2018-04-15T03:52:10.224Z,78.10
2018-04-15T03:54:37.951Z,78.74
2018-04-15T03:57:05.603Z,77.80
2018-04-15T03:59:33.239Z,78.94
2018-04-15T04:02:00.874Z,77.95
2018-04-15T04:04:28.603Z,77.88
2018-04-15T04:06:56.926Z,78.62
2018-04-15T04:09:24.568Z,78.24
2018-04-15T04:11:52.397Z,78.02
2018-04-15T04:14:20.035Z,79.39
2018-04-15T04:16:47.660Z,79.16
2018-04-15T04:19:27.097Z,78.85
2018-04-15T04:22:06.408Z,77.86
2018-04-15T04:24:45.802Z,78.90
2018-04-15T04:27:13.639Z,78.31
2018-04-15T04:29:42.182Z,78.49
2018-04-15T04:32:09.793Z,78.36
2018-04-15T04:34:37.708Z,79.15
2018-04-15T04:37:05.382Z,79.38
2018-04-15T04:39:33.011Z,78.77
2018-04-15T04:42:00.609Z,78.40
2018-04-15T04:44:28.376Z,78.85
2018-04-15T04:46:56.149Z,78.75
2018-04-15T04:49:23.799Z,78.75
2018-04-15T04:51:51.425Z,78.38
2018-04-15T04:54:19.600Z,79.78
2018-04-15T04:56:47.532Z,80.68
2018-04-15T04:59:16.000Z,80.39
2018-04-15T05:01:43.772Z,80.60
2018-04-15T05:04:11.429Z,79.45
2018-04-15T05:06:39.190Z,78.78
2018-04-15T05:09:06.854Z,78.75
2018-04-15T05:11:35.286Z,79.25
2018-04-15T05:14:03.099Z,79.20
2018-04-15T05:16:31.460Z,78.56
2018-04-15T05:18:59.222Z,78.20
2018-04-15T05:21:27.005Z,78.76
2018-04-15T05:23:54.623Z,79.02
2018-04-15T05:26:22.610Z,78.70
2018-04-15T05:28:50.203Z,78.81
2018-04-15T05:31:17.973Z,79.60
2018-04-15T05:33:45.581Z,79.32
2018-04-15T05:36:13.376Z,78.68
2018-04-15T05:38:40.976Z,77.48
2018-04-15T05:41:09.506Z,77.21
2018-04-15T05:43:37.082Z,78.33
2018-04-15T05:46:05.058Z,78.34
2018-04-15T05:48:32.637Z,78.13
2018-04-15T05:51:00.479Z,77.46
2018-04-15T05:53:28.151Z,78.09
2018-04-15T05:55:55.792Z,79.15
2018-04-15T05:58:23.697Z,78.76
2018-04-15T06:00:51.293Z,78.13
2018-04-15T06:03:19.304Z,77.84
2018-04-15T06:05:46.918Z,77.12
2018-04-15T06:08:14.556Z,77.12
2018-04-15T06:10:42.296Z,76.60
2018-04-15T06:13:09.946Z,76.30
2018-04-15T06:15:37.678Z,76.77
2018-04-15T06:18:05.443Z,76.77
2018-04-15T06:20:38.536Z,75.96
2018-04-15T06:23:06.195Z,75.67
2018-04-15T06:25:33.919Z,75.70
2018-04-15T06:28:01.784Z,76.30
2018-04-15T06:30:29.393Z,74.71
2018-04-15T06:32:57.024Z,74.72
2018-04-15T06:35:24.681Z,73.86
2018-04-15T06:37:52.521Z,74.07
2018-04-15T06:40:20.385Z,74.43
2018-04-15T06:42:48.027Z,74.68
2018-04-15T06:45:15.851Z,73.99
2018-04-15T06:47:43.516Z,74.41
2018-04-15T06:50:11.147Z,74.13
2018-04-15T06:52:38.952Z,74.26
2018-04-15T06:55:06.553Z,73.34
2018-04-15T06:57:34.218Z,73.94
2018-04-15T07:00:01.898Z,73.88
2018-04-15T07:02:29.671Z,74.32
2018-04-15T07:04:57.527Z,73.50
2018-04-15T07:07:25.181Z,73.21
2018-04-15T07:09:53.233Z,73.06
2018-04-15T07:12:20.853Z,74.31
2018-04-15T07:14:48.682Z,74.73
2018-04-15T07:17:16.346Z,73.94
2018-04-15T07:19:44.832Z,73.37
2018-04-15T07:22:12.435Z,72.42
2018-04-15T07:24:40.087Z,74.04
2018-04-15T07:27:07.707Z,73.93
2018-04-15T07:29:35.354Z,73.64
2018-04-15T07:32:02.986Z,73.90
2018-04-15T07:34:30.664Z,73.52
2018-04-15T07:36:58.422Z,73.10
2018-04-15T07:39:26.090Z,72.35
2018-04-15T07:41:53.824Z,70.91
2018-04-15T07:44:21.497Z,73.32
2018-04-15T07:46:49.205Z,72.92
2018-04-15T07:49:16.819Z,71.73
2018-04-15T07:51:44.474Z,71.19
2018-04-15T07:54:12.080Z,70.97
2018-04-15T07:56:39.785Z,72.34
2018-04-15T07:59:07.380Z,71.25
2018-04-15T08:01:35.080Z,71.00
2018-04-15T08:04:02.728Z,70.86
2018-04-15T08:06:30.427Z,70.68
2018-04-15T08:08:58.091Z,69.97
2018-04-15T08:11:26.357Z,70.02
2018-04-15T08:13:54.064Z,70.91
2018-04-15T08:16:21.686Z,70.82
2018-04-15T08:18:49.295Z,70.05
2018-04-15T08:21:16.959Z,68.88
2018-04-15T08:23:44.633Z,69.22
2018-04-15T08:26:12.313Z,68.74
2018-04-15T08:28:39.996Z,68.63
2018-04-15T08:31:08.232Z,68.33
2018-04-15T08:33:35.937Z,68.06
2018-04-15T08:36:03.589Z,67.82
2018-04-15T08:38:31.233Z,67.41
2018-04-15T08:40:58.908Z,67.86
2018-04-15T08:43:26.587Z,66.78
2018-04-15T08:45:54.267Z,66.68
2018-04-15T08:48:21.974Z,66.59
2018-04-15T08:50:49.676Z,66.43
2018-04-15T08:53:17.406Z,66.07
2018-04-15T08:55:45.105Z,64.35
2018-04-15T08:58:12.755Z,64.13
2018-04-15T09:00:40.388Z,64.50
2018-04-15T09:03:08.109Z,64.35
2018-04-15T09:05:35.714Z,63.84
2018-04-15T09:08:03.361Z,64.44
2018-04-15T09:10:31.028Z,62.73
2018-04-15T09:12:58.637Z,63.46
2018-04-15T09:15:26.301Z,63.67
2018-04-15T09:17:53.939Z,63.60
2018-04-15T09:20:21.629Z,61.65
2018-04-15T09:22:49.247Z,62.27
2018-04-15T09:25:16.925Z,62.22
2018-04-15T09:27:44.576Z,63.10
2018-04-15T09:30:12.325Z,64.49
2018-04-15T09:32:39.992Z,63.70
2018-04-15T09:35:07.613Z,62.65
2018-04-15T09:37:35.276Z,62.84
2018-04-15T09:40:02.987Z,63.37
2018-04-15T09:42:30.696Z,63.42
2018-04-15T09:44:58.314Z,62.14
2018-04-15T09:47:25.982Z,61.27
2018-04-15T09:49:53.628Z,61.63
2018-04-15T09:52:21.327Z,59.66
2018-04-15T09:54:49.036Z,60.13
2018-04-15T09:57:16.659Z,60.50
2018-04-15T09:59:44.372Z,59.60
2018-04-15T10:02:12.022Z,60.35
2018-04-15T10:04:39.709Z,59.69
2018-04-15T10:07:07.335Z,59.17
2018-04-15T10:09:34.978Z,59.39
2018-04-15T10:12:02.603Z,58.39
2018-04-15T10:14:30.256Z,58.75
2018-04-15T10:16:57.935Z,57.22
2018-04-15T10:19:25.591Z,57.47
2018-04-15T10:21:53.261Z,56.34
2018-04-15T10:24:20.932Z,55.98
2018-04-15T10:26:48.632Z,55.09
2018-04-15T10:29:16.336Z,53.45
2018-04-15T10:31:44.794Z,51.93
2018-04-15T10:34:13.399Z,50.13
2018-04-15T10:36:41.070Z,50.89
2018-04-15T10:39:08.699Z,51.94
2018-04-15T10:41:36.454Z,51.34
2018-04-15T10:44:04.150Z,51.64
2018-04-15T10:46:31.801Z,51.45
2018-04-15T10:48:59.437Z,52.16
2018-04-15T10:51:27.043Z,52.44
2018-04-15T10:53:54.740Z,51.47
2018-04-15T10:56:22.431Z,51.70
2018-04-15T10:58:50.077Z,53.55
2018-04-15T11:01:17.757Z,53.17
2018-04-15T11:03:45.540Z,53.40
2018-04-15T11:06:13.208Z,53.23
2018-04-15T11:08:40.882Z,52.67
2018-04-15T11:11:08.679Z,52.28
2018-04-15T11:13:36.280Z,50.61
2018-04-15T11:16:04.071Z,51.55
2018-04-15T11:18:31.745Z,52.67
2018-04-15T11:20:59.401Z,52.50
2018-04-15T11:23:27.056Z,53.28
2018-04-15T11:25:54.773Z,51.34
2018-04-15T11:28:22.397Z,52.21
2018-04-15T11:30:50.061Z,50.64
2018-04-15T11:33:17.701Z,50.13
2018-04-15T11:35:45.399Z,49.75
2018-04-15T11:38:13.090Z,49.90
2018-04-15T11:40:41.338Z,51.06
2018-04-15T11:43:09.050Z,47.96
2018-04-15T11:45:36.808Z,46.84
2018-04-15T11:48:04.533Z,46.00
2018-04-15T11:50:32.256Z,44.88
2018-04-15T11:52:59.906Z,44.58
2018-04-15T11:55:27.616Z,44.73
2018-04-15T11:57:55.292Z,44.87
2018-04-15T12:00:23.075Z,44.26
2018-04-15T12:02:50.775Z,43.90
2018-04-15T12:05:18.447Z,43.39
2018-04-15T12:07:46.192Z,41.91
2018-04-15T12:10:14.920Z,42.06
2018-04-15T12:12:42.835Z,40.64
2018-04-15T12:15:11.284Z,42.45
2018-04-15T12:17:39.237Z,40.62
2018-04-15T12:20:08.309Z,40.88
2018-04-15T12:22:36.017Z,41.14
2018-04-15T12:25:03.984Z,40.00
2018-04-15T12:27:32.162Z,42.47
2018-04-15T12:30:01.248Z,40.72
2018-04-15T12:32:30.583Z,41.42
2018-04-15T12:34:59.125Z,41.47
2018-04-15T12:37:27.625Z,41.10
2018-04-15T12:39:56.371Z,43.38
2018-04-15T12:42:25.917Z,41.53
2018-04-15T12:44:53.684Z,42.42
2018-04-15T12:47:21.741Z,43.06
2018-04-15T12:49:49.739Z,43.87
2018-04-15T12:52:17.798Z,43.97
2018-04-15T12:54:46.774Z,44.20
2018-04-15T12:57:14.874Z,41.92
2018-04-15T12:59:42.738Z,41.64
2018-04-15T13:02:10.801Z,40.43
2018-04-15T13:04:38.920Z,40.90
2018-04-15T13:07:07.137Z,42.55
2018-04-15T13:09:35.174Z,41.01
2018-04-15T13:12:03.219Z,42.29
2018-04-15T13:14:31.259Z,42.94
2018-04-15T13:16:59.186Z,41.33
2018-04-15T13:19:26.821Z,42.00
2018-04-15T13:21:54.763Z,41.59
2018-04-15T13:24:22.612Z,39.62
2018-04-15T13:26:50.335Z,40.04
2018-04-15T13:29:18.471Z,41.45
2018-04-15T13:31:46.321Z,39.76
2018-04-15T13:34:14.184Z,41.17
2018-04-15T13:36:42.637Z,42.43
2018-04-15T13:39:10.341Z,42.63
2018-04-15T13:41:38.201Z,43.48
2018-04-15T13:44:06.126Z,43.03
2018-04-15T13:46:34.967Z,43.24
2018-04-15T13:49:02.728Z,45.64
2018-04-15T13:51:30.630Z,44.96
2018-04-15T13:53:58.252Z,43.17
2018-04-15T13:56:26.262Z,38.56
2018-04-15T13:58:55.626Z,39.18
2018-04-15T14:01:23.233Z,40.59
2018-04-15T14:03:50.959Z,41.97
2018-04-15T14:06:19.981Z,42.48
2018-04-15T14:08:48.042Z,42.63
2018-04-15T14:11:15.742Z,42.03
2018-04-15T14:13:43.386Z,38.79
2018-04-15T14:16:11.327Z,33.96
2018-04-15T14:18:39.028Z,33.74
2018-04-15T14:21:06.965Z,34.98
2018-04-15T14:23:35.015Z,34.83
2018-04-15T14:26:03.073Z,34.73
2018-04-15T14:28:30.854Z,33.35
2018-04-15T14:30:58.525Z,33.36
2018-04-15T14:33:26.190Z,33.71
2018-04-15T14:35:53.926Z,34.39
2018-04-15T14:38:21.916Z,33.92
2018-04-15T14:40:49.665Z,34.47
2018-04-15T14:43:17.525Z,34.94
2018-04-15T14:45:45.372Z,34.74
2018-04-15T14:48:13.636Z,34.49
2018-04-15T14:50:41.338Z,35.33
2018-04-15T14:53:09.125Z,36.36
2018-04-15T14:55:38.132Z,36.88
2018-04-15T14:58:06.136Z,36.62
2018-04-15T15:00:33.962Z,34.97
2018-04-15T15:03:01.626Z,35.71
2018-04-15T15:05:29.591Z,36.25
2018-04-15T15:07:57.598Z,36.59
2018-04-15T15:10:25.743Z,37.08
2018-04-15T15:12:53.609Z,38.23
2018-04-15T15:15:21.663Z,36.48
2018-04-15T15:17:49.325Z,36.38
2018-04-15T15:20:17.602Z,38.10
2018-04-15T15:22:45.379Z,38.27
2018-04-15T15:25:13.237Z,38.19
2018-04-15T15:27:41.508Z,36.89
2018-04-15T15:30:09.278Z,37.08
2018-04-15T15:32:37.136Z,38.05
2018-04-15T15:35:05.111Z,38.18
2018-04-15T15:37:35.394Z,39.01
2018-04-15T15:40:05.949Z,39.51
2018-04-15T15:42:33.730Z,40.10
2018-04-15T15:45:01.907Z,40.19
2018-04-15T15:47:29.523Z,40.57
2018-04-15T15:49:57.381Z,40.88
2018-04-15T15:52:26.235Z,41.47
2018-04-15T15:54:53.972Z,41.39
2018-04-15T15:57:21.768Z,43.22
2018-04-15T15:59:49.606Z,44.85
2018-04-15T16:02:17.340Z,45.54
2018-04-15T16:04:45.147Z,46.31
2018-04-15T16:07:13.734Z,47.42
2018-04-15T16:09:43.845Z,47.41
2018-04-15T16:12:11.547Z,48.45
2018-04-15T16:14:39.209Z,47.94
2018-04-15T16:17:06.897Z,48.07
2018-04-15T16:19:34.560Z,48.80
2018-04-15T16:22:02.262Z,49.78
2018-04-15T16:24:30.361Z,50.19
2018-04-15T16:26:57.988Z,50.82
2018-04-15T16:29:25.626Z,50.69
2018-04-15T16:31:53.341Z,50.32
2018-04-15T16:34:21.673Z,50.62
2018-04-15T16:36:49.371Z,51.58
2018-04-15T16:39:17.423Z,50.87
2018-04-15T16:41:45.363Z,50.43
2018-04-15T16:44:13.078Z,50.81
2018-04-15T16:46:40.942Z,52.23
2018-04-15T16:49:10.600Z,52.79
2018-04-15T16:51:38.242Z,52.16
2018-04-15T16:54:06.103Z,52.11
2018-04-15T16:56:33.766Z,52.77
2018-04-15T16:59:01.543Z,52.85
2018-04-15T17:01:29.223Z,53.24
2018-04-15T17:03:57.412Z,52.78
2018-04-15T17:06:25.683Z,53.12
2018-04-15T17:08:53.328Z,52.78
2018-04-15T17:11:21.171Z,52.53
2018-04-15T17:13:52.862Z,53.16
2018-04-15T17:16:21.354Z,54.23
2018-04-15T17:18:49.135Z,54.37
2018-04-15T17:21:16.939Z,54.19
2018-04-15T17:23:44.729Z,52.72
2018-04-15T17:26:13.604Z,53.27
2018-04-15T17:28:41.646Z,53.62
2018-04-15T17:31:09.355Z,53.79
2018-04-15T17:33:37.254Z,52.87
2018-04-15T17:36:05.017Z,52.70
2018-04-15T17:38:32.823Z,53.56
2018-04-15T17:41:00.498Z,54.07
2018-04-15T17:43:29.081Z,53.65
2018-04-15T17:45:56.929Z,53.72
2018-04-15T17:48:24.779Z,54.10
2018-04-15T17:50:53.835Z,54.35
2018-04-15T17:53:21.575Z,55.33
2018-04-15T17:55:49.327Z,55.58
2018-04-15T17:58:17.048Z,55.40
2018-04-15T18:00:44.738Z,55.67
2018-04-15T18:03:12.395Z,55.16
2018-04-15T18:05:40.327Z,55.75
2018-04-15T18:08:07.946Z,54.93
2018-04-15T18:10:35.796Z,54.48
2018-04-15T18:13:03.439Z,54.93
2018-04-15T18:15:31.173Z,56.45
2018-04-15T18:17:58.856Z,55.93
2018-04-15T18:20:26.577Z,57.59
2018-04-15T18:22:55.327Z,58.48
2018-04-15T18:25:23.120Z,57.18
2018-04-15T18:27:50.852Z,56.82
2018-04-15T18:30:18.531Z,57.28
2018-04-15T18:32:46.294Z,56.64
2018-04-15T18:35:14.171Z,55.78
2018-04-15T18:37:41.984Z,56.83
2018-04-15T18:40:09.619Z,57.98
2018-04-15T18:42:37.341Z,58.56
2018-04-15T18:45:05.097Z,57.80
2018-04-15T18:47:33.345Z,58.22
2018-04-15T18:50:01.189Z,57.87
2018-04-15T18:52:28.895Z,57.62
2018-04-15T18:54:56.524Z,57.86
2018-04-15T18:57:24.489Z,58.85
2018-04-15T18:59:52.250Z,60.57
2018-04-15T19:02:19.939Z,60.61
2018-04-15T19:04:47.685Z,59.04
2018-04-15T19:07:15.395Z,59.85
2018-04-15T19:09:44.115Z,58.87
2018-04-15T19:12:11.992Z,58.90
2018-04-15T19:14:39.754Z,58.39
2018-04-15T19:17:07.656Z,58.25
2018-04-15T19:19:35.805Z,59.16
2018-04-15T19:22:04.080Z,59.40
2018-04-15T19:24:32.243Z,60.46
2018-04-15T19:26:59.988Z,59.51
2018-04-15T19:29:27.750Z,59.34
2018-04-15T19:31:55.461Z,58.00
2018-04-15T19:34:23.221Z,59.66
2018-04-15T19:36:51.264Z,60.90
2018-04-15T19:39:19.011Z,61.87
2018-04-15T19:41:46.756Z,63.72
2018-04-15T19:44:14.496Z,66.26
2018-04-15T19:46:43.731Z,67.12
2018-04-15T19:49:11.581Z,68.35
2018-04-15T19:51:40.304Z,67.61
2018-04-15T19:54:08.180Z,65.55
2018-04-15T19:56:35.943Z,65.31
2018-04-15T19:59:04.841Z,65.21
2018-04-15T20:01:32.658Z,66.97
2018-04-15T20:04:00.527Z,67.99
2018-04-15T20:06:28.595Z,67.78
2018-04-15T20:08:56.713Z,67.24
2018-04-15T20:11:24.360Z,67.06
2018-04-15T20:13:52.448Z,66.99
2018-04-15T20:16:20.437Z,67.52
2018-04-15T20:18:48.574Z,67.92
2018-04-15T20:21:16.763Z,68.37
2018-04-15T20:23:44.617Z,68.27
2018-04-15T20:26:12.489Z,68.14
2018-04-15T20:28:40.580Z,67.31
2018-04-15T20:31:08.271Z,66.69
2018-04-15T20:33:36.034Z,67.12
2018-04-15T20:36:04.571Z,68.06
2018-04-15T20:38:32.398Z,69.09
2018-04-15T20:41:00.149Z,69.20
2018-04-15T20:43:27.804Z,69.96
2018-04-15T20:45:55.706Z,69.47
2018-04-15T20:48:23.431Z,69.40
2018-04-15T20:50:51.140Z,68.70
2018-04-15T20:53:18.835Z,68.63
2018-04-15T20:55:46.515Z,69.07
2018-04-15T20:58:14.144Z,68.12
2018-04-15T21:00:41.861Z,68.10
2018-04-15T21:03:09.615Z,68.32
2018-04-15T21:05:38.412Z,66.43
2018-04-15T21:08:06.082Z,65.41
2018-04-15T21:10:33.796Z,65.13
2018-04-15T21:13:01.459Z,66.01
2018-04-15T21:15:29.177Z,66.39
2018-04-15T21:17:56.771Z,67.98
2018-04-15T21:20:24.418Z,69.83
2018-04-15T21:22:52.108Z,68.30
2018-04-15T21:25:19.826Z,70.83
2018-04-15T21:27:47.456Z,70.13
2018-04-15T21:30:15.114Z,70.40
2018-04-15T21:32:42.798Z,69.91
2018-04-15T21:35:10.407Z,69.94
2018-04-15T21:37:38.075Z,71.21
2018-04-15T21:40:05.666Z,72.00
2018-04-15T21:42:33.341Z,72.44
2018-04-15T21:45:00.971Z,73.25
2018-04-15T21:47:28.658Z,74.02
2018-04-15T21:49:56.294Z,74.26
2018-04-15T21:52:23.870Z,75.38
2018-04-15T21:54:51.532Z,76.15
2018-04-15T21:57:19.308Z,74.89
2018-04-15T21:59:47.041Z,74.91
2018-04-15T22:02:14.657Z,75.50
2018-04-15T22:04:42.304Z,76.33
2018-04-15T22:07:10.012Z,77.26
2018-04-15T22:09:37.635Z,77.05
2018-04-15T22:12:15.234Z,76.68
2018-04-15T22:14:42.911Z,75.65
2018-04-15T22:17:10.555Z,74.49
2018-04-15T22:19:38.253Z,75.65
2018-04-15T22:22:05.859Z,76.24
2018-04-15T22:24:33.542Z,75.94
2018-04-15T22:27:01.279Z,75.21
2018-04-15T22:29:28.951Z,75.60
2018-04-15T22:31:56.596Z,75.10
2018-04-15T22:34:24.230Z,75.83
2018-04-15T22:36:51.822Z,76.91
2018-04-15T22:39:19.503Z,77.45
2018-04-15T22:41:47.144Z,77.34
2018-04-15T22:44:14.765Z,78.85
2018-04-15T22:46:42.427Z,78.44
2018-04-15T22:49:15.464Z,77.01
2018-04-15T22:51:43.129Z,77.61
2018-04-15T22:54:10.747Z,77.50
2018-04-15T22:56:43.373Z,77.26
2018-04-15T22:59:11.037Z,77.04
2018-04-15T23:01:39.330Z,77.09
2018-04-15T23:04:06.976Z,76.83
2018-04-15T23:06:34.620Z,76.82
2018-04-15T23:09:02.213Z,76.65
2018-04-15T23:11:30.011Z,76.35
2018-04-15T23:13:57.647Z,76.79
2018-04-15T23:16:25.329Z,76.60
2018-04-15T23:18:53.020Z,76.58
2018-04-15T23:21:20.640Z,77.23
2018-04-15T23:23:48.328Z,76.69
2018-04-15T23:26:15.975Z,77.08
2018-04-15T23:28:43.561Z,76.40
2018-04-15T23:31:11.228Z,75.34
2018-04-15T23:33:38.906Z,75.65
2018-04-15T23:36:06.504Z,75.58
2018-04-15T23:38:34.113Z,76.56
2018-04-15T23:41:01.787Z,76.77
2018-04-15T23:43:29.382Z,76.10
2018-04-15T23:45:57.153Z,75.95
2018-04-15T23:48:24.739Z,76.83
2018-04-15T23:50:52.379Z,76.12
2018-04-15T23:53:19.986Z,77.47
2018-04-15T23:55:47.586Z,78.12
2018-04-15T23:58:15.397Z,77.98
